Time;durP1;ratioP1;P1;durP2;ratioP2;P2;SDS_P1;SDS_P2;PMS_P1;PMS_P2;Temp;Humidity;BMP_temperature;BMP_pressure;BME280_temperature;BME280_humidity;BME280_pressure;Samples;Min_cycle;Max_cycle;Signal;HPM_P1;HPM_P2
2022/10/31 00:02:20;;;;;;;32.55;10.23;;;;;;;;;;4998714;28;20046;-48
2022/10/31 00:04:45;;;;;;;25.08;10.43;;;;;;;;;;4993110;28;20471;-50
2022/10/31 00:07:10;;;;;;;25.52;10.23;;;;;;;;;;4998419;28;20093;-50
2022/10/31 00:09:36;;;;;;;22.33;10.32;;;;;;;;;;4983577;28;20501;-47
2022/10/31 00:12:01;;;;;;;26.77;10.63;;;;;;;;;;4999214;28;20407;-46
2022/10/31 00:14:27;;;;;;;24.08;10.95;;;;;;;;;;4996622;28;20082;-50
2022/10/31 00:16:52;;;;;;;30.17;10.43;;;;;;;;;;4993770;28;20022;-46
2022/10/31 00:19:17;;;;;;;25.00;9.82;;;;;;;;;;4995693;28;20031;-51
2022/10/31 00:21:43;;;;;;;20.73;10.40;;;;;;;;;;4993296;28;20125;-51
2022/10/31 00:24:08;;;;;;;22.52;10.18;;;;;;;;;;4995949;28;20051;-50
2022/10/31 00:26:34;;;;;;;21.42;9.90;;;;;;;;;;4998502;28;20560;-49
2022/10/31 00:29:00;;;;;;;29.50;11.35;;;;;;;;;;4990857;28;20153;-47
2022/10/31 00:31:25;;;;;;;27.92;9.45;;;;;;;;;;4994755;28;20478;-49
2022/10/31 00:33:50;;;;;;;25.02;10.52;;;;;;;;;;4994707;28;20034;-48
2022/10/31 00:36:18;;;;;;;18.30;9.60;;;;;;;;;;4995190;28;20041;-47
2022/10/31 00:38:44;;;;;;;25.90;9.73;;;;;;;;;;4993671;28;20034;-47
2022/10/31 00:41:11;;;;;;;24.35;10.15;;;;;;;;;;4993274;28;20057;-47
2022/10/31 00:43:36;;;;;;;25.63;9.38;;;;;;;;;;4997465;28;20038;-51
2022/10/31 00:46:02;;;;;;;24.42;9.38;;;;;;;;;;4992124;28;20033;-51
2022/10/31 00:48:28;;;;;;;22.63;9.80;;;;;;;;;;4995821;28;20128;-50
2022/10/31 00:50:53;;;;;;;21.83;10.00;;;;;;;;;;4992925;28;20072;-49
2022/10/31 00:53:18;;;;;;;24.42;9.10;;;;;;;;;;4993159;28;20106;-47
2022/10/31 00:55:44;;;;;;;23.95;9.10;;;;;;;;;;4994052;28;20029;-50
2022/10/31 00:58:09;;;;;;;19.80;8.95;;;;;;;;;;4993943;28;20044;-50
2022/10/31 01:00:34;;;;;;;23.27;9.25;;;;;;;;;;4990509;28;20018;-50
2022/10/31 01:03:00;;;;;;;25.00;8.80;;;;;;;;;;4999346;28;20042;-46
2022/10/31 01:05:25;;;;;;;29.02;9.93;;;;;;;;;;4996940;28;20109;-51
2022/10/31 01:07:51;;;;;;;20.73;10.25;;;;;;;;;;4992012;28;20042;-48
2022/10/31 01:10:17;;;;;;;21.50;9.95;;;;;;;;;;4992857;28;20053;-49
2022/10/31 01:12:46;;;;;;;29.02;9.77;;;;;;;;;;4998877;28;20046;-49
2022/10/31 01:15:13;;;;;;;25.30;9.80;;;;;;;;;;4996772;28;20031;-48
2022/10/31 01:17:39;;;;;;;28.25;10.10;;;;;;;;;;4995800;28;20039;-46
2022/10/31 01:20:06;;;;;;;23.83;8.43;;;;;;;;;;4994280;28;20061;-48
2022/10/31 01:22:32;;;;;;;31.08;9.88;;;;;;;;;;4990907;28;20034;-50
2022/10/31 01:24:57;;;;;;;19.55;8.60;;;;;;;;;;4992876;28;20087;-52
2022/10/31 01:27:23;;;;;;;21.45;8.75;;;;;;;;;;4995517;28;20046;-51
2022/10/31 01:29:48;;;;;;;22.45;9.10;;;;;;;;;;4991754;28;20034;-52
2022/10/31 01:32:13;;;;;;;21.77;9.00;;;;;;;;;;4992835;28;20200;-50
2022/10/31 01:34:39;;;;;;;23.45;9.82;;;;;;;;;;4993343;28;20058;-48
2022/10/31 01:37:04;;;;;;;21.30;9.02;;;;;;;;;;4994351;28;20053;-49
2022/10/31 01:39:29;;;;;;;21.33;8.93;;;;;;;;;;4988769;28;20490;-49
2022/10/31 01:41:55;;;;;;;24.48;8.60;;;;;;;;;;4995798;28;20035;-47
2022/10/31 01:44:20;;;;;;;14.13;7.97;;;;;;;;;;4991684;28;20105;-47
2022/10/31 01:47:01;;;;;;;27.40;8.38;;;;;;;;;;4993386;28;20390;-48
2022/10/31 01:49:26;;;;;;;22.60;8.82;;;;;;;;;;4989348;28;20038;-49
2022/10/31 01:51:58;;;;;;;25.38;9.43;;;;;;;;;;4991705;28;20140;-47
2022/10/31 01:54:27;;;;;;;15.32;7.28;;;;;;;;;;4990325;28;20040;-50
2022/10/31 01:56:55;;;;;;;26.38;9.10;;;;;;;;;;4994190;28;20021;-47
2022/10/31 01:59:24;;;;;;;25.17;8.90;;;;;;;;;;4990539;28;20444;-48
2022/10/31 02:01:51;;;;;;;24.83;7.88;;;;;;;;;;4990348;28;20023;-50
2022/10/31 02:04:18;;;;;;;16.27;8.70;;;;;;;;;;4994057;28;20025;-47
2022/10/31 02:06:53;;;;;;;16.08;6.97;;;;;;;;;;4995959;28;20022;-50
2022/10/31 02:09:23;;;;;;;16.55;8.00;;;;;;;;;;4986208;28;20123;-50
2022/10/31 02:11:52;;;;;;;18.42;7.90;;;;;;;;;;4990037;28;20026;-47
2022/10/31 02:14:18;;;;;;;20.77;8.40;;;;;;;;;;4994568;28;20049;-48
2022/10/31 02:16:43;;;;;;;23.25;8.02;;;;;;;;;;4988315;28;21581;-47
2022/10/31 02:19:13;;;;;;;24.02;7.53;;;;;;;;;;4991611;28;20062;-48
2022/10/31 02:21:52;;;;;;;29.20;7.60;;;;;;;;;;4992012;28;20053;-48
2022/10/31 02:24:31;;;;;;;20.70;7.78;;;;;;;;;;4994678;28;20104;-49
2022/10/31 02:27:09;;;;;;;16.13;7.10;;;;;;;;;;4995620;28;20083;-49
2022/10/31 02:29:55;;;;;;;19.35;7.20;;;;;;;;;;4996855;28;20075;-50
2022/10/31 02:32:33;;;;;;;22.35;7.70;;;;;;;;;;4995109;28;20038;-49
2022/10/31 02:35:01;;;;;;;17.23;7.03;;;;;;;;;;4995140;28;20049;-46
2022/10/31 02:37:47;;;;;;;15.02;7.18;;;;;;;;;;4989215;28;20471;-51
2022/10/31 02:40:23;;;;;;;23.50;7.68;;;;;;;;;;4995774;28;20570;-51
2022/10/31 02:42:54;;;;;;;14.80;6.63;;;;;;;;;;4996251;28;20038;-50
2022/10/31 02:45:27;;;;;;;16.93;7.87;;;;;;;;;;4998089;28;20490;-50
2022/10/31 02:47:56;;;;;;;17.70;6.82;;;;;;;;;;4997758;28;20052;-52
2022/10/31 02:50:28;;;;;;;22.15;7.25;;;;;;;;;;4997171;28;20041;-51
2022/10/31 02:52:53;;;;;;;25.42;7.53;;;;;;;;;;4990851;28;20030;-51
2022/10/31 02:55:22;;;;;;;19.33;6.72;;;;;;;;;;4997499;28;20038;-47
2022/10/31 02:57:48;;;;;;;15.30;6.97;;;;;;;;;;4993458;28;20052;-47
2022/10/31 03:00:14;;;;;;;14.88;6.70;;;;;;;;;;4994827;28;20109;-47
2022/10/31 03:03:30;;;;;;;27.27;7.43;;;;;;;;;;4998332;28;20136;-48
2022/10/31 03:06:01;;;;;;;17.75;7.00;;;;;;;;;;4956918;28;20035;-48
2022/10/31 03:08:38;;;;;;;15.60;7.15;;;;;;;;;;4955594;28;20491;-46
2022/10/31 03:11:05;;;;;;;19.23;7.07;;;;;;;;;;4958822;28;20137;-47
2022/10/31 03:13:59;;;;;;;23.00;7.00;;;;;;;;;;4953303;28;20178;-46
2022/10/31 03:16:42;;;;;;;17.02;7.53;;;;;;;;;;4955665;28;20046;-46
2022/10/31 03:19:15;;;;;;;21.63;7.32;;;;;;;;;;4953395;28;20050;-47
2022/10/31 03:21:58;;;;;;;23.73;7.40;;;;;;;;;;4951932;28;20077;-47
2022/10/31 03:24:29;;;;;;;15.68;7.07;;;;;;;;;;4955686;28;20426;-49
2022/10/31 03:26:59;;;;;;;22.38;7.85;;;;;;;;;;4951537;28;20035;-48
2022/10/31 03:29:28;;;;;;;11.52;6.47;;;;;;;;;;4954024;28;20118;-46
2022/10/31 03:32:00;;;;;;;22.30;6.75;;;;;;;;;;4948364;28;20105;-46
2022/10/31 03:34:28;;;;;;;19.85;6.68;;;;;;;;;;4951165;28;20031;-46
2022/10/31 03:36:57;;;;;;;18.50;7.50;;;;;;;;;;4981235;28;20554;-47
2022/10/31 03:39:23;;;;;;;18.65;7.22;;;;;;;;;;4997929;28;20038;-47
2022/10/31 03:42:11;;;;;;;16.38;6.45;;;;;;;;;;4992342;28;20507;-47
2022/10/31 03:44:38;;;;;;;13.40;6.30;;;;;;;;;;4992800;28;20039;-46
2022/10/31 03:47:04;;;;;;;20.45;5.72;;;;;;;;;;4999824;28;20121;-46
2022/10/31 03:49:31;;;;;;;16.50;6.53;;;;;;;;;;4993029;28;20113;-46
2022/10/31 03:52:10;;;;;;;14.60;6.55;;;;;;;;;;4996315;28;20120;-47
2022/10/31 03:54:42;;;;;;;13.20;6.78;;;;;;;;;;4993839;28;20474;-46
2022/10/31 03:57:16;;;;;;;17.45;6.40;;;;;;;;;;4992425;28;20046;-48
2022/10/31 03:59:46;;;;;;;16.45;6.53;;;;;;;;;;4992374;28;20035;-46
2022/10/31 04:02:16;;;;;;;17.70;6.47;;;;;;;;;;4998219;28;20584;-46
2022/10/31 04:04:44;;;;;;;20.92;6.72;;;;;;;;;;4987910;28;20030;-50
2022/10/31 04:07:10;;;;;;;13.40;6.32;;;;;;;;;;4989349;28;20047;-48
2022/10/31 04:09:39;;;;;;;15.15;7.05;;;;;;;;;;4993053;28;20454;-47
2022/10/31 04:12:08;;;;;;;23.92;5.80;;;;;;;;;;4989425;28;20060;-47
2022/10/31 04:14:36;;;;;;;14.73;5.97;;;;;;;;;;4996841;28;20078;-47
2022/10/31 04:17:05;;;;;;;21.67;7.30;;;;;;;;;;4993693;28;20133;-48
2022/10/31 04:19:32;;;;;;;18.25;6.68;;;;;;;;;;4995406;28;20033;-47
2022/10/31 04:21:58;;;;;;;11.35;6.10;;;;;;;;;;4987271;28;20089;-49
2022/10/31 04:24:23;;;;;;;15.45;5.85;;;;;;;;;;4995702;28;20037;-49
2022/10/31 04:26:48;;;;;;;12.57;6.65;;;;;;;;;;4992876;28;20049;-47
2022/10/31 04:29:14;;;;;;;26.77;6.53;;;;;;;;;;4995936;28;20038;-47
2022/10/31 04:31:39;;;;;;;19.52;6.10;;;;;;;;;;4988949;28;20387;-47
2022/10/31 04:34:04;;;;;;;20.23;6.13;;;;;;;;;;4997892;28;20038;-50
2022/10/31 04:36:30;;;;;;;15.73;6.32;;;;;;;;;;4996588;28;20034;-46
2022/10/31 04:38:55;;;;;;;11.52;5.80;;;;;;;;;;4998002;28;20047;-46
2022/10/31 04:41:20;;;;;;;12.85;5.10;;;;;;;;;;4999714;28;20480;-47
2022/10/31 04:43:46;;;;;;;14.20;5.65;;;;;;;;;;4989703;28;20038;-46
2022/10/31 04:46:11;;;;;;;20.05;5.47;;;;;;;;;;4996664;28;20029;-46
2022/10/31 04:48:36;;;;;;;16.80;5.93;;;;;;;;;;4996145;28;20058;-46
2022/10/31 04:51:02;;;;;;;16.73;5.88;;;;;;;;;;4995615;28;20414;-47
2022/10/31 04:53:28;;;;;;;17.38;5.20;;;;;;;;;;4993817;28;20695;-47
2022/10/31 04:55:54;;;;;;;19.80;5.72;;;;;;;;;;4998722;28;20038;-49
2022/10/31 04:58:19;;;;;;;17.80;6.18;;;;;;;;;;4995829;28;20032;-49
2022/10/31 05:00:45;;;;;;;16.40;5.57;;;;;;;;;;4993403;28;20033;-51
2022/10/31 05:03:10;;;;;;;15.80;5.38;;;;;;;;;;4994552;28;20041;-51
2022/10/31 05:05:35;;;;;;;14.57;5.43;;;;;;;;;;4994141;28;20077;-51
2022/10/31 05:08:01;;;;;;;16.42;6.88;;;;;;;;;;4996601;28;20041;-52
2022/10/31 05:10:28;;;;;;;15.48;6.10;;;;;;;;;;4995235;28;20048;-50
2022/10/31 05:13:00;;;;;;;12.13;5.88;;;;;;;;;;4993958;28;20038;-51
2022/10/31 05:15:27;;;;;;;18.88;7.10;;;;;;;;;;4994633;28;20519;-47
2022/10/31 05:17:53;;;;;;;17.98;5.50;;;;;;;;;;4999045;28;20552;-48
2022/10/31 05:20:22;;;;;;;17.90;6.32;;;;;;;;;;4990101;28;20426;-48
2022/10/31 05:22:49;;;;;;;15.70;6.10;;;;;;;;;;4991583;28;20979;-47
2022/10/31 05:25:16;;;;;;;18.50;5.45;;;;;;;;;;4991185;28;20069;-47
2022/10/31 05:27:45;;;;;;;11.52;5.30;;;;;;;;;;4994389;28;20479;-50
2022/10/31 05:30:12;;;;;;;18.08;6.15;;;;;;;;;;4993229;28;20492;-50
2022/10/31 05:32:39;;;;;;;18.52;5.95;;;;;;;;;;4991987;28;20147;-51
2022/10/31 05:35:09;;;;;;;20.88;6.55;;;;;;;;;;4992042;28;20096;-50
2022/10/31 05:37:35;;;;;;;16.52;5.80;;;;;;;;;;4993121;28;20051;-52
2022/10/31 05:40:02;;;;;;;17.98;5.97;;;;;;;;;;4997790;28;20061;-49
2022/10/31 05:42:27;;;;;;;15.88;5.18;;;;;;;;;;4989799;28;20042;-47
2022/10/31 05:44:52;;;;;;;20.05;6.07;;;;;;;;;;5000215;28;20026;-51
2022/10/31 05:47:18;;;;;;;21.80;5.68;;;;;;;;;;4995251;28;20045;-48
2022/10/31 05:49:43;;;;;;;14.88;6.10;;;;;;;;;;4984613;28;20039;-48
2022/10/31 05:52:08;;;;;;;13.73;5.75;;;;;;;;;;4991064;28;20384;-52
2022/10/31 05:54:34;;;;;;;18.73;5.82;;;;;;;;;;4993333;28;20042;-50
2022/10/31 05:56:59;;;;;;;19.92;6.45;;;;;;;;;;4993411;28;20095;-53
2022/10/31 05:59:24;;;;;;;14.77;6.13;;;;;;;;;;4996909;28;20051;-47
2022/10/31 06:01:50;;;;;;;20.60;5.82;;;;;;;;;;4988136;28;20053;-48
2022/10/31 06:04:15;;;;;;;19.63;5.07;;;;;;;;;;4991631;28;20022;-52
2022/10/31 06:06:40;;;;;;;23.88;6.40;;;;;;;;;;4997484;28;20472;-49
2022/10/31 06:09:06;;;;;;;16.48;5.70;;;;;;;;;;4992909;28;20425;-49
2022/10/31 06:11:31;;;;;;;18.55;5.68;;;;;;;;;;4989328;28;20027;-48
2022/10/31 06:13:56;;;;;;;22.50;5.53;;;;;;;;;;4994306;28;20042;-48
2022/10/31 06:16:22;;;;;;;17.60;5.78;;;;;;;;;;4991084;28;20056;-48
2022/10/31 06:18:47;;;;;;;20.00;6.65;;;;;;;;;;4992798;28;20690;-49
2022/10/31 06:21:13;;;;;;;17.35;6.22;;;;;;;;;;4992252;28;20568;-49
2022/10/31 06:23:38;;;;;;;21.65;6.13;;;;;;;;;;4988469;28;20120;-52
2022/10/31 06:26:03;;;;;;;16.88;5.88;;;;;;;;;;4994472;28;20066;-52
2022/10/31 06:28:29;;;;;;;15.82;5.93;;;;;;;;;;4987137;28;20105;-47
2022/10/31 06:30:54;;;;;;;15.45;5.55;;;;;;;;;;4990539;28;20041;-47
2022/10/31 06:33:19;;;;;;;16.45;5.65;;;;;;;;;;4987981;28;20047;-46
2022/10/31 06:35:48;;;;;;;20.27;6.13;;;;;;;;;;4993206;28;20026;-49
2022/10/31 06:38:14;;;;;;;20.00;5.68;;;;;;;;;;4992121;28;20407;-50
2022/10/31 06:40:39;;;;;;;22.90;6.68;;;;;;;;;;4991401;28;20097;-50
2022/10/31 06:43:05;;;;;;;15.02;6.03;;;;;;;;;;4984289;28;20170;-49
2022/10/31 06:45:30;;;;;;;22.10;5.90;;;;;;;;;;4995095;28;20030;-52
2022/10/31 06:47:56;;;;;;;23.27;5.97;;;;;;;;;;4989650;28;20517;-51
2022/10/31 06:50:22;;;;;;;13.73;5.95;;;;;;;;;;4995403;28;20040;-46
2022/10/31 06:52:56;;;;;;;13.27;5.30;;;;;;;;;;4992064;28;20150;-48
2022/10/31 06:55:24;;;;;;;28.63;6.18;;;;;;;;;;4992026;28;20062;-51
2022/10/31 06:57:57;;;;;;;21.67;5.45;;;;;;;;;;4987840;28;20038;-48
2022/10/31 07:00:24;;;;;;;18.80;5.60;;;;;;;;;;4993956;28;20022;-46
2022/10/31 07:03:16;;;;;;;19.33;5.68;;;;;;;;;;4985656;28;20094;-52
2022/10/31 07:05:42;;;;;;;19.23;6.47;;;;;;;;;;4992947;28;20065;-52
2022/10/31 07:08:10;;;;;;;15.27;6.45;;;;;;;;;;4993207;28;20039;-46
2022/10/31 07:10:36;;;;;;;21.98;7.22;;;;;;;;;;4996311;28;20029;-47
2022/10/31 07:13:04;;;;;;;21.63;5.75;;;;;;;;;;4992385;28;20042;-50
2022/10/31 07:15:34;;;;;;;15.02;6.35;;;;;;;;;;4994464;28;20403;-48
2022/10/31 07:18:04;;;;;;;35.05;6.57;;;;;;;;;;4996472;28;20156;-50
2022/10/31 07:20:30;;;;;;;30.45;6.30;;;;;;;;;;4998311;28;20042;-46
2022/10/31 07:22:56;;;;;;;18.95;6.20;;;;;;;;;;4993337;28;20054;-48
2022/10/31 07:25:22;;;;;;;16.83;5.93;;;;;;;;;;4999056;28;20038;-46
2022/10/31 07:27:47;;;;;;;12.48;5.68;;;;;;;;;;4996286;28;20034;-47
2022/10/31 07:30:14;;;;;;;18.38;6.90;;;;;;;;;;4995265;28;20038;-50
2022/10/31 07:32:47;;;;;;;16.52;6.40;;;;;;;;;;4994505;28;20034;-47
2022/10/31 07:35:17;;;;;;;14.27;5.70;;;;;;;;;;4993739;28;20077;-46
2022/10/31 07:37:43;;;;;;;14.20;5.60;;;;;;;;;;4994593;28;20487;-48
2022/10/31 07:40:09;;;;;;;16.52;5.85;;;;;;;;;;4998930;28;20046;-50
2022/10/31 07:42:39;;;;;;;14.07;5.40;;;;;;;;;;4997748;28;20084;-46
2022/10/31 07:45:06;;;;;;;20.05;5.38;;;;;;;;;;4991506;28;20034;-47
2022/10/31 07:47:42;;;;;;;20.42;5.93;;;;;;;;;;4994687;28;20062;-48
2022/10/31 07:50:10;;;;;;;19.00;6.03;;;;;;;;;;4993330;28;20053;-49
2022/10/31 07:52:35;;;;;;;21.73;5.70;;;;;;;;;;4989188;28;20034;-50
2022/10/31 07:55:01;;;;;;;19.92;5.60;;;;;;;;;;4994601;28;20018;-49
2022/10/31 07:57:26;;;;;;;17.15;5.53;;;;;;;;;;4994316;28;20046;-51
2022/10/31 07:59:51;;;;;;;14.10;5.22;;;;;;;;;;4996201;28;20037;-47
2022/10/31 08:02:16;;;;;;;17.88;5.53;;;;;;;;;;4993755;28;20049;-47
2022/10/31 08:04:42;;;;;;;15.15;4.75;;;;;;;;;;4993275;28;20455;-50
2022/10/31 08:07:07;;;;;;;19.88;5.72;;;;;;;;;;4991453;28;20050;-48
2022/10/31 08:09:32;;;;;;;22.52;5.70;;;;;;;;;;4998441;28;20041;-50
2022/10/31 08:11:58;;;;;;;15.52;5.13;;;;;;;;;;4993107;28;20064;-49
2022/10/31 08:14:23;;;;;;;15.52;5.40;;;;;;;;;;4992869;28;20525;-50
2022/10/31 08:16:49;;;;;;;13.40;5.43;;;;;;;;;;4996101;28;20033;-49
2022/10/31 08:19:14;;;;;;;20.67;5.93;;;;;;;;;;4997570;28;20030;-48
2022/10/31 08:21:39;;;;;;;28.17;5.90;;;;;;;;;;4988390;28;20061;-48
2022/10/31 08:24:05;;;;;;;18.52;5.57;;;;;;;;;;4993654;28;20081;-47
2022/10/31 08:26:31;;;;;;;19.98;5.78;;;;;;;;;;4999059;28;20034;-49
2022/10/31 08:28:56;;;;;;;23.40;5.40;;;;;;;;;;4994697;28;20518;-47
2022/10/31 08:31:22;;;;;;;18.83;5.50;;;;;;;;;;4993631;28;20112;-51
2022/10/31 08:33:48;;;;;;;19.25;5.22;;;;;;;;;;4991448;28;20138;-48
2022/10/31 08:36:13;;;;;;;14.02;4.90;;;;;;;;;;4998901;28;20109;-47
2022/10/31 08:38:38;;;;;;;19.88;5.35;;;;;;;;;;4998271;28;21201;-50
2022/10/31 08:41:04;;;;;;;23.80;6.15;;;;;;;;;;4995696;28;20029;-50
2022/10/31 08:43:29;;;;;;;22.23;5.80;;;;;;;;;;4993333;28;20046;-49
2022/10/31 08:45:55;;;;;;;19.73;5.82;;;;;;;;;;5000999;28;20035;-49
2022/10/31 08:48:21;;;;;;;17.00;5.70;;;;;;;;;;4990460;28;20548;-49
2022/10/31 08:50:46;;;;;;;24.63;5.70;;;;;;;;;;4995157;28;20390;-49
2022/10/31 08:53:15;;;;;;;24.02;5.93;;;;;;;;;;4994316;28;20045;-47
2022/10/31 08:55:41;;;;;;;23.17;5.03;;;;;;;;;;4995901;28;20035;-48
2022/10/31 08:58:10;;;;;;;18.88;5.70;;;;;;;;;;4993055;28;20435;-52
2022/10/31 09:00:35;;;;;;;16.83;5.72;;;;;;;;;;4997378;28;20053;-48
2022/10/31 09:03:08;;;;;;;22.92;6.65;;;;;;;;;;4993371;28;20062;-48
2022/10/31 09:05:34;;;;;;;22.13;5.10;;;;;;;;;;4995632;28;20030;-47
2022/10/31 09:08:01;;;;;;;18.75;5.63;;;;;;;;;;4996511;28;20502;-46
2022/10/31 09:10:28;;;;;;;30.58;4.93;;;;;;;;;;4997527;28;20542;-51
2022/10/31 09:13:00;;;;;;;25.40;5.90;;;;;;;;;;4993120;28;20073;-52
2022/10/31 09:15:27;;;;;;;20.15;5.65;;;;;;;;;;4991220;28;20453;-49
2022/10/31 09:17:53;;;;;;;20.70;5.88;;;;;;;;;;4994383;28;20057;-48
2022/10/31 09:20:19;;;;;;;26.70;7.15;;;;;;;;;;4994706;28;20746;-50
2022/10/31 09:22:45;;;;;;;27.13;6.38;;;;;;;;;;4997258;28;20513;-50
2022/10/31 09:25:11;;;;;;;21.42;5.20;;;;;;;;;;4989563;28;20026;-47
2022/10/31 09:27:36;;;;;;;20.60;5.30;;;;;;;;;;4993673;28;20092;-48
2022/10/31 09:30:03;;;;;;;22.13;5.95;;;;;;;;;;4995221;28;20482;-47
2022/10/31 09:32:28;;;;;;;18.88;5.97;;;;;;;;;;4996513;28;20037;-47
2022/10/31 09:34:53;;;;;;;27.30;5.68;;;;;;;;;;4995286;28;20494;-50
2022/10/31 09:37:19;;;;;;;23.42;5.35;;;;;;;;;;4993263;28;20398;-47
2022/10/31 09:39:44;;;;;;;25.35;5.30;;;;;;;;;;4990802;28;20063;-49
2022/10/31 09:42:31;;;;;;;21.60;5.80;;;;;;;;;;4996994;28;20050;-46
2022/10/31 09:45:17;;;;;;;23.05;5.85;;;;;;;;;;4995513;28;20038;-52
2022/10/31 09:48:11;;;;;;;20.92;5.40;;;;;;;;;;4992037;28;20042;-48
2022/10/31 09:50:48;;;;;;;29.10;6.38;;;;;;;;;;4994683;28;20034;-49
2022/10/31 09:53:39;;;;;;;24.83;5.60;;;;;;;;;;4987350;28;20050;-47
2022/10/31 09:56:09;;;;;;;22.58;5.95;;;;;;;;;;4991326;28;20046;-47
2022/10/31 09:58:41;;;;;;;15.35;5.22;;;;;;;;;;4996128;28;20417;-51
2022/10/31 10:01:19;;;;;;;15.23;4.93;;;;;;;;;;4994128;28;20043;-49
2022/10/31 10:03:53;;;;;;;15.82;5.25;;;;;;;;;;4991423;28;20046;-46
2022/10/31 10:06:28;;;;;;;26.90;6.30;;;;;;;;;;4991260;28;20381;-47
2022/10/31 10:08:55;;;;;;;26.02;5.70;;;;;;;;;;4992287;28;20046;-49
2022/10/31 10:11:29;;;;;;;20.15;5.85;;;;;;;;;;4991640;28;20598;-52
2022/10/31 10:14:00;;;;;;;21.85;5.60;;;;;;;;;;4992623;28;20524;-47
2022/10/31 10:16:40;;;;;;;24.60;5.68;;;;;;;;;;4993232;28;20080;-47
2022/10/31 10:19:38;;;;;;;22.48;4.70;;;;;;;;;;4995594;28;20043;-49
2022/10/31 10:22:21;;;;;;;26.70;5.85;;;;;;;;;;4994155;28;20046;-47
2022/10/31 10:24:46;;;;;;;26.60;4.95;;;;;;;;;;4990833;28;20453;-53
2022/10/31 10:27:38;;;;;;;34.88;6.13;;;;;;;;;;4992227;28;20041;-47
2022/10/31 10:30:17;;;;;;;31.20;5.13;;;;;;;;;;4986808;28;20062;-48
2022/10/31 10:32:46;;;;;;;15.20;5.68;;;;;;;;;;4994618;28;20517;-47
2022/10/31 10:35:22;;;;;;;26.70;5.55;;;;;;;;;;4992288;28;20045;-49
2022/10/31 10:37:51;;;;;;;27.83;5.28;;;;;;;;;;4990352;28;20562;-47
2022/10/31 10:40:21;;;;;;;31.80;5.50;;;;;;;;;;4993346;28;20026;-47
2022/10/31 10:43:22;;;;;;;12.60;4.75;;;;;;;;;;4993511;28;20062;-52
2022/10/31 10:49:13;;;;;;;27.25;5.57;;;;;;;;;;4996315;28;20407;-52
2022/10/31 10:51:58;;;;;;;15.57;4.35;;;;;;;;;;4928983;29;20518;-45
2022/10/31 10:54:38;;;;;;;16.15;5.05;;;;;;;;;;4926574;29;20051;-47
2022/10/31 10:57:19;;;;;;;19.95;4.97;;;;;;;;;;4928353;29;20043;-48
2022/10/31 10:59:45;;;;;;;22.30;4.95;;;;;;;;;;4926549;29;20548;-49
2022/10/31 11:02:19;;;;;;;19.95;5.30;;;;;;;;;;4926800;29;20055;-49
2022/10/31 11:04:51;;;;;;;21.70;4.90;;;;;;;;;;4924219;29;20381;-48
2022/10/31 11:07:17;;;;;;;22.88;5.50;;;;;;;;;;4927205;29;20572;-47
2022/10/31 11:09:42;;;;;;;16.95;4.78;;;;;;;;;;4931099;29;20047;-49
2022/10/31 11:12:33;;;;;;;19.73;5.72;;;;;;;;;;4926870;29;20051;-46
2022/10/31 11:15:06;;;;;;;15.13;4.75;;;;;;;;;;4920271;29;20035;-48
2022/10/31 11:17:38;;;;;;;23.92;4.50;;;;;;;;;;4925730;29;20067;-47
2022/10/31 11:20:12;;;;;;;18.90;4.40;;;;;;;;;;4926347;29;20052;-51
2022/10/31 11:22:37;;;;;;;25.02;4.95;;;;;;;;;;4928193;29;20044;-50
2022/10/31 11:25:23;;;;;;;18.80;5.07;;;;;;;;;;4925626;29;20059;-51
2022/10/31 11:28:03;;;;;;;21.63;4.38;;;;;;;;;;4932550;28;20045;-51
2022/10/31 11:30:30;;;;;;;21.00;5.30;;;;;;;;;;4991426;28;20794;-47
2022/10/31 11:32:56;;;;;;;15.82;5.25;;;;;;;;;;4990658;28;20048;-47
2022/10/31 11:35:23;;;;;;;23.30;5.30;;;;;;;;;;4993142;28;20041;-47
2022/10/31 11:37:50;;;;;;;27.83;5.20;;;;;;;;;;4999090;28;20039;-49
2022/10/31 11:40:27;;;;;;;21.48;5.43;;;;;;;;;;4991254;28;20030;-48
2022/10/31 11:42:56;;;;;;;28.58;5.78;;;;;;;;;;4991372;28;20042;-49
2022/10/31 11:45:34;;;;;;;26.10;5.00;;;;;;;;;;4994791;28;20414;-48
2022/10/31 11:48:01;;;;;;;20.58;5.00;;;;;;;;;;4995669;28;20380;-48
2022/10/31 11:50:34;;;;;;;17.45;4.97;;;;;;;;;;4997189;28;20026;-49
2022/10/31 11:53:00;;;;;;;18.88;4.70;;;;;;;;;;4995270;28;20077;-49
2022/10/31 11:55:37;;;;;;;15.20;4.00;;;;;;;;;;4997614;28;20030;-47
2022/10/31 11:58:04;;;;;;;23.85;4.63;;;;;;;;;;4999446;28;20048;-48
2022/10/31 12:00:37;;;;;;;19.17;4.68;;;;;;;;;;4997215;28;20081;-49
2022/10/31 12:03:21;;;;;;;9.88;4.13;;;;;;;;;;4992924;28;20169;-48
2022/10/31 12:05:53;;;;;;;19.90;4.20;;;;;;;;;;4986366;28;20430;-48
2022/10/31 12:08:19;;;;;;;15.07;5.18;;;;;;;;;;4994844;28;20035;-49
2022/10/31 12:11:21;;;;;;;24.60;5.25;;;;;;;;;;4998625;28;20093;-49
2022/10/31 12:13:56;;;;;;;31.50;5.88;;;;;;;;;;4995630;28;20041;-47
2022/10/31 12:16:44;;;;;;;15.90;4.85;;;;;;;;;;4995689;28;20054;-49
2022/10/31 12:19:23;;;;;;;24.23;4.28;;;;;;;;;;4994515;28;20050;-50
2022/10/31 12:22:10;;;;;;;21.83;4.80;;;;;;;;;;4990768;28;20486;-50
2022/10/31 12:25:00;;;;;;;21.58;4.90;;;;;;;;;;4992590;28;20038;-51
2022/10/31 12:27:48;;;;;;;14.30;4.70;;;;;;;;;;4994065;28;20088;-49
2022/10/31 12:30:19;;;;;;;24.83;5.45;;;;;;;;;;4996805;28;20046;-52
2022/10/31 12:33:23;;;;;;;23.48;5.35;;;;;;;;;;4995979;28;20053;-50
2022/10/31 12:36:39;;;;;;;18.85;5.22;;;;;;;;;;4926992;29;20048;-50
2022/10/31 12:39:36;;;;;;;16.90;4.78;;;;;;;;;;4855219;29;20061;-48
2022/10/31 12:42:19;;;;;;;16.50;5.13;;;;;;;;;;4853239;29;20069;-51
2022/10/31 12:45:17;;;;;;;18.27;4.93;;;;;;;;;;4854907;29;20060;-48
2022/10/31 12:48:11;;;;;;;14.85;4.53;;;;;;;;;;4855265;29;20160;-50
2022/10/31 12:50:54;;;;;;;15.98;4.80;;;;;;;;;;4852429;29;20088;-49
2022/10/31 12:54:10;;;;;;;40.13;5.88;;;;;;;;;;4852680;29;20053;-52
2022/10/31 12:56:41;;;;;;;22.05;5.35;;;;;;;;;;4865079;29;20539;-53
2022/10/31 12:59:22;;;;;;;21.95;5.70;;;;;;;;;;4861626;29;20097;-51
2022/10/31 13:01:58;;;;;;;25.92;5.13;;;;;;;;;;4855506;29;20128;-49
2022/10/31 13:04:36;;;;;;;24.30;4.90;;;;;;;;;;4861123;29;20626;-47
2022/10/31 13:07:08;;;;;;;23.88;4.72;;;;;;;;;;4861544;29;20041;-48
2022/10/31 13:09:38;;;;;;;;;;;;;;;;;;4860953;29;20111;-51
2022/10/31 13:12:13;;;;;;;24.85;4.35;;;;;;;;;;4867400;29;20010;-47
2022/10/31 13:15:18;;;;;;;20.45;4.63;;;;;;;;;;4917316;28;20502;-48
2022/10/31 13:17:53;;;;;;;26.10;4.88;;;;;;;;;;4936349;29;20061;-50
2022/10/31 13:20:32;;;;;;;21.50;5.13;;;;;;;;;;4934618;29;20066;-51
2022/10/31 13:23:31;;;;;;;20.08;4.40;;;;;;;;;;4931756;28;20080;-49
2022/10/31 13:25:59;;;;;;;22.42;4.68;;;;;;;;;;4921539;29;20056;-47
2022/10/31 13:28:33;;;;;;;26.95;4.60;;;;;;;;;;4926675;29;20196;-50
2022/10/31 13:30:59;;;;;;;10.13;3.33;;;;;;;;;;4928952;29;20366;-48
2022/10/31 13:33:37;;;;;;;25.63;5.15;;;;;;;;;;4932624;29;20054;-51
2022/10/31 13:36:08;;;;;;;15.07;4.15;;;;;;;;;;4935719;29;20035;-47
2022/10/31 13:38:46;;;;;;;30.98;4.25;;;;;;;;;;4936018;28;20436;-49
2022/10/31 13:41:30;;;;;;;21.63;4.55;;;;;;;;;;4935272;29;20055;-47
2022/10/31 13:44:27;;;;;;;29.10;5.32;;;;;;;;;;4934249;29;20202;-49
2022/10/31 13:46:55;;;;;;;24.42;4.10;;;;;;;;;;4928726;29;20043;-52
2022/10/31 13:49:23;;;;;;;13.63;4.53;;;;;;;;;;4931410;29;20098;-51
2022/10/31 13:51:52;;;;;;;22.20;4.78;;;;;;;;;;4934659;28;20042;-48
2022/10/31 13:54:23;;;;;;;19.30;5.45;;;;;;;;;;4966021;28;20046;-47
2022/10/31 13:56:51;;;;;;;21.23;5.28;;;;;;;;;;4993353;28;20041;-49
2022/10/31 13:59:22;;;;;;;20.77;5.32;;;;;;;;;;4995357;28;20046;-47
2022/10/31 14:01:51;;;;;;;23.80;5.60;;;;;;;;;;4988606;28;20100;-51
2022/10/31 14:04:20;;;;;;;17.10;4.45;;;;;;;;;;4997150;28;20531;-48
2022/10/31 14:06:59;;;;;;;17.52;3.88;;;;;;;;;;4987213;28;20029;-51
2022/10/31 14:09:30;;;;;;;15.57;4.75;;;;;;;;;;4987064;28;20034;-48
2022/10/31 14:12:00;;;;;;;23.58;6.00;;;;;;;;;;4991761;28;20080;-51
2022/10/31 14:14:32;;;;;;;23.45;4.75;;;;;;;;;;4995612;28;20488;-48
2022/10/31 14:16:58;;;;;;;21.13;5.00;;;;;;;;;;4984957;28;20039;-49
2022/10/31 14:19:24;;;;;;;14.98;4.55;;;;;;;;;;4993770;28;20157;-46
2022/10/31 14:21:50;;;;;;;29.30;5.07;;;;;;;;;;4996938;28;20045;-48
2022/10/31 14:24:25;;;;;;;26.00;4.57;;;;;;;;;;4992778;28;20609;-52
2022/10/31 14:27:20;;;;;;;21.42;4.25;;;;;;;;;;4988364;28;20034;-50
2022/10/31 14:29:46;;;;;;;21.27;4.30;;;;;;;;;;4990029;28;20399;-51
2022/10/31 14:32:12;;;;;;;26.08;5.25;;;;;;;;;;4994689;28;20045;-47
2022/10/31 14:34:43;;;;;;;33.53;5.45;;;;;;;;;;4988876;28;20042;-49
2022/10/31 14:37:08;;;;;;;30.45;5.75;;;;;;;;;;4989020;28;20584;-47
2022/10/31 14:40:04;;;;;;;18.45;5.00;;;;;;;;;;4989238;28;20129;-49
2022/10/31 14:42:35;;;;;;;29.65;5.15;;;;;;;;;;4985594;28;20381;-47
2022/10/31 14:45:09;;;;;;;25.35;5.32;;;;;;;;;;4992819;28;20602;-47
2022/10/31 14:47:57;;;;;;;29.63;4.93;;;;;;;;;;4991926;28;20712;-49
2022/10/31 14:50:41;;;;;;;30.80;5.03;;;;;;;;;;4989985;28;20037;-47
2022/10/31 14:53:15;;;;;;;20.58;5.95;;;;;;;;;;4988339;28;20042;-46
2022/10/31 14:55:47;;;;;;;16.02;5.30;;;;;;;;;;4992299;28;20065;-47
2022/10/31 14:58:19;;;;;;;28.73;5.00;;;;;;;;;;4989799;28;20080;-51